createdAt,value
2022-12-24T00:01:12.502Z,2.28
2022-12-24T00:03:58.950Z,2.13
2022-12-24T00:06:45.578Z,2.22
2022-12-24T00:09:33.091Z,2.33
2022-12-24T00:12:19.916Z,2.15
2022-12-24T00:15:08.854Z,1.98
2022-12-24T00:17:57.085Z,2.33
2022-12-24T00:20:48.591Z,2.03
2022-12-24T00:23:35.393Z,2.00
2022-12-24T00:26:22.163Z,2.25
2022-12-24T00:29:09.695Z,2.28
2022-12-24T00:31:56.710Z,2.22
2022-12-24T00:34:44.819Z,2.00
2022-12-24T00:37:31.529Z,2.58
2022-12-24T00:40:19.540Z,2.40
2022-12-24T00:43:06.724Z,2.45
2022-12-24T00:45:53.750Z,2.45
2022-12-24T00:48:40.620Z,2.38
2022-12-24T00:51:29.704Z,3.10
2022-12-24T00:54:17.242Z,2.95
2022-12-24T00:57:04.135Z,3.22
2022-12-24T00:59:51.187Z,3.42
2022-12-24T01:02:38.672Z,3.20
2022-12-24T01:05:25.679Z,3.40
2022-12-24T01:08:13.923Z,3.40
2022-12-24T01:11:02.328Z,2.70
2022-12-24T01:13:49.230Z,2.90
2022-12-24T01:16:36.134Z,2.45
2022-12-24T01:19:23.130Z,2.50
2022-12-24T01:22:10.210Z,2.70
2022-12-24T01:24:58.411Z,2.65
2022-12-24T01:27:45.546Z,2.58
2022-12-24T01:30:32.886Z,3.30
2022-12-24T01:33:19.671Z,2.47
2022-12-24T01:36:07.799Z,2.40
2022-12-24T01:38:54.302Z,3.33
2022-12-24T01:41:59.371Z,2.85
2022-12-24T01:44:52.420Z,2.88
2022-12-24T01:47:39.403Z,2.40
2022-12-24T01:50:26.382Z,2.97
2022-12-24T01:53:15.582Z,2.88
2022-12-24T01:56:03.417Z,3.00
2022-12-24T01:59:01.508Z,2.30
2022-12-24T02:01:51.023Z,2.40
2022-12-24T02:04:43.484Z,2.67
2022-12-24T02:07:30.396Z,2.13
2022-12-24T02:10:17.792Z,2.60
2022-12-24T02:13:06.228Z,3.22
2022-12-24T02:16:10.949Z,2.83
2022-12-24T02:19:18.598Z,3.33
2022-12-24T02:22:13.650Z,2.20
2022-12-24T02:25:26.402Z,3.17
2022-12-24T02:28:29.053Z,3.00
2022-12-24T02:31:24.089Z,2.40
2022-12-24T02:34:20.859Z,2.65
2022-12-24T02:37:13.427Z,3.13
2022-12-24T02:40:15.740Z,3.10
2022-12-24T02:43:11.644Z,2.85
2022-12-24T02:46:04.428Z,2.50
2022-12-24T02:48:53.401Z,2.53
2022-12-24T02:51:39.801Z,2.67
2022-12-24T02:54:26.995Z,2.67
2022-12-24T02:57:29.451Z,2.80
2022-12-24T03:00:20.659Z,2.67
2022-12-24T03:03:26.555Z,3.35
2022-12-24T03:06:25.887Z,2.55
2022-12-24T03:09:26.251Z,3.42
2022-12-24T03:12:20.873Z,2.22
2022-12-24T03:15:10.888Z,2.67
2022-12-24T03:18:03.126Z,2.70
2022-12-24T03:20:57.494Z,2.47
2022-12-24T03:23:45.950Z,2.55
2022-12-24T03:26:34.430Z,2.70
2022-12-24T03:29:21.650Z,2.50
2022-12-24T03:32:08.886Z,2.83
2022-12-24T03:34:56.147Z,2.65
2022-12-24T03:37:42.819Z,2.85
2022-12-24T03:40:31.837Z,2.95
2022-12-24T03:43:18.561Z,3.67
2022-12-24T03:46:07.626Z,2.70
2022-12-24T03:48:54.121Z,3.38
2022-12-24T03:51:41.016Z,3.03
2022-12-24T03:54:27.877Z,2.78
2022-12-24T03:57:16.200Z,3.00
2022-12-24T04:00:03.568Z,2.95
2022-12-24T04:02:50.565Z,2.45
2022-12-24T04:05:37.433Z,3.63
2022-12-24T04:08:24.347Z,2.97
2022-12-24T04:11:16.331Z,3.03
2022-12-24T04:14:04.434Z,2.70
2022-12-24T04:16:51.309Z,2.95
2022-12-24T04:19:38.011Z,3.00
2022-12-24T04:22:24.819Z,3.40
2022-12-24T04:25:11.926Z,2.97
2022-12-24T04:27:58.543Z,2.95
2022-12-24T04:30:46.960Z,2.47
2022-12-24T04:33:34.134Z,3.22
2022-12-24T04:36:21.991Z,2.92
2022-12-24T04:39:08.954Z,3.15
2022-12-24T04:41:55.753Z,3.35
2022-12-24T04:44:42.192Z,3.08
2022-12-24T04:47:30.344Z,3.22
2022-12-24T04:50:17.390Z,2.63
2022-12-24T04:53:04.261Z,3.38
2022-12-24T04:55:50.921Z,3.33
2022-12-24T04:58:38.296Z,3.70
2022-12-24T05:01:28.531Z,2.70
2022-12-24T05:04:17.704Z,3.58
2022-12-24T05:07:04.645Z,3.47
2022-12-24T05:09:51.675Z,3.30
2022-12-24T05:12:38.612Z,3.00
2022-12-24T05:15:26.075Z,2.67
2022-12-24T05:18:12.674Z,2.53
2022-12-24T05:21:01.077Z,2.92
2022-12-24T05:24:05.716Z,2.38
2022-12-24T05:26:55.954Z,2.38
2022-12-24T05:29:42.720Z,2.58
2022-12-24T05:32:31.301Z,2.97
2022-12-24T05:35:18.104Z,3.13
2022-12-24T05:38:06.349Z,3.40
2022-12-24T05:40:52.955Z,3.45
2022-12-24T05:43:40.381Z,3.22
2022-12-24T05:46:27.607Z,2.78
2022-12-24T05:49:14.666Z,3.33
2022-12-24T05:52:01.521Z,2.70
2022-12-24T05:54:49.878Z,3.50
2022-12-24T05:57:36.646Z,3.60
2022-12-24T06:00:23.545Z,3.80
2022-12-24T06:03:10.665Z,3.88
2022-12-24T06:06:02.074Z,3.55
2022-12-24T06:08:49.898Z,3.55
2022-12-24T06:11:38.657Z,3.20
2022-12-24T06:14:25.362Z,3.78
2022-12-24T06:17:12.391Z,3.28
2022-12-24T06:19:59.050Z,3.00
2022-12-24T06:22:45.864Z,3.10
2022-12-24T06:25:32.963Z,2.97
2022-12-24T06:28:21.124Z,2.85
2022-12-24T06:31:12.730Z,3.22
2022-12-24T06:33:59.715Z,3.05
2022-12-24T06:36:46.497Z,2.90
2022-12-24T06:39:33.317Z,3.45
2022-12-24T06:42:20.063Z,2.92
2022-12-24T06:45:10.237Z,2.90
2022-12-24T06:47:56.977Z,3.70
2022-12-24T06:50:44.186Z,2.80
2022-12-24T06:53:31.462Z,3.65
2022-12-24T06:56:19.619Z,2.80
2022-12-24T06:59:06.675Z,2.70
2022-12-24T07:01:54.940Z,2.55
2022-12-24T07:04:42.060Z,2.38
2022-12-24T07:07:28.789Z,2.72
2022-12-24T07:10:18.546Z,2.65
2022-12-24T07:13:05.523Z,2.80
2022-12-24T07:15:59.442Z,2.60
2022-12-24T07:18:47.809Z,2.45
2022-12-24T07:21:34.603Z,2.55
2022-12-24T07:24:21.566Z,2.78
2022-12-24T07:27:09.656Z,3.50
2022-12-24T07:29:56.739Z,2.90
2022-12-24T07:32:44.053Z,2.92
2022-12-24T07:35:31.914Z,3.00
2022-12-24T07:38:18.616Z,2.10
2022-12-24T07:41:05.759Z,3.03
2022-12-24T07:43:53.050Z,2.35
2022-12-24T07:46:39.728Z,2.53
2022-12-24T07:49:26.627Z,3.15
2022-12-24T07:52:14.909Z,3.08
2022-12-24T07:55:01.396Z,2.67
2022-12-24T07:57:48.261Z,3.22
2022-12-24T08:00:35.162Z,2.60
2022-12-24T08:03:22.857Z,2.72
2022-12-24T08:06:12.278Z,3.10
2022-12-24T08:09:00.209Z,2.92
2022-12-24T08:11:51.902Z,3.08
2022-12-24T08:14:39.240Z,2.90
2022-12-24T08:17:31.838Z,3.08
2022-12-24T08:20:19.158Z,3.13
2022-12-24T08:23:05.793Z,2.47
2022-12-24T08:25:54.185Z,2.47
2022-12-24T08:28:40.701Z,3.20
2022-12-24T08:31:27.478Z,2.40
2022-12-24T08:34:14.320Z,2.70
2022-12-24T08:37:01.157Z,2.97
2022-12-24T08:39:47.488Z,2.25
2022-12-24T08:42:35.542Z,2.13
2022-12-24T08:45:22.387Z,2.67
2022-12-24T08:48:10.847Z,2.42
2022-12-24T08:50:57.795Z,2.47
2022-12-24T08:53:44.752Z,3.13
2022-12-24T08:56:31.309Z,2.58
2022-12-24T08:59:19.927Z,2.75
2022-12-24T09:02:07.622Z,2.55
2022-12-24T09:04:54.460Z,2.92
2022-12-24T09:07:43.289Z,2.47
2022-12-24T09:10:29.785Z,2.80
2022-12-24T09:13:16.813Z,2.88
2022-12-24T09:16:06.268Z,2.92
2022-12-24T09:18:52.969Z,2.88
2022-12-24T09:21:39.725Z,2.17
2022-12-24T09:24:26.335Z,2.65
2022-12-24T09:27:12.728Z,2.58
2022-12-24T09:29:59.703Z,2.70
2022-12-24T09:32:47.985Z,3.33
2022-12-24T09:35:34.685Z,2.78
2022-12-24T09:38:22.472Z,2.60
2022-12-24T09:41:27.787Z,3.15
2022-12-24T09:44:34.740Z,3.22
2022-12-24T09:47:29.743Z,2.92
2022-12-24T09:50:35.232Z,2.63
2022-12-24T09:53:28.919Z,2.17
2022-12-24T09:56:21.192Z,3.03
2022-12-24T09:59:14.668Z,3.22
2022-12-24T10:02:02.404Z,2.95
2022-12-24T10:04:50.487Z,2.67
2022-12-24T10:07:52.078Z,2.83
2022-12-24T10:10:48.613Z,2.40
2022-12-24T10:13:57.062Z,3.47
2022-12-24T10:16:56.997Z,2.72
2022-12-24T10:19:56.510Z,2.60
2022-12-24T10:22:55.101Z,3.08
2022-12-24T10:25:50.506Z,3.92
2022-12-24T10:28:49.290Z,3.05
2022-12-24T10:31:57.608Z,2.88
2022-12-24T10:34:47.592Z,2.78
2022-12-24T10:37:34.257Z,3.00
2022-12-24T10:40:36.520Z,3.33
2022-12-24T10:43:27.393Z,2.63
2022-12-24T10:46:24.178Z,3.22
2022-12-24T10:49:17.621Z,3.15
2022-12-24T10:52:11.587Z,2.90
2022-12-24T10:55:12.437Z,2.92
2022-12-24T10:58:04.914Z,2.78
2022-12-24T11:00:53.648Z,2.80
2022-12-24T11:03:40.851Z,2.70
2022-12-24T11:06:27.392Z,2.92
2022-12-24T11:09:23.874Z,2.70
2022-12-24T11:12:24.584Z,2.42
2022-12-24T11:15:20.084Z,2.90
2022-12-24T11:18:17.592Z,3.33
2022-12-24T11:21:06.571Z,3.00
2022-12-24T11:24:01.453Z,2.83
2022-12-24T11:26:48.335Z,2.75
2022-12-24T11:29:35.792Z,2.30
2022-12-24T11:32:24.597Z,2.85
2022-12-24T11:35:18.910Z,2.63
2022-12-24T11:38:13.248Z,2.70
2022-12-24T11:41:04.647Z,2.50
2022-12-24T11:44:03.346Z,2.40
2022-12-24T11:46:52.874Z,3.08
2022-12-24T11:49:40.919Z,3.10
2022-12-24T11:52:31.490Z,2.53
2022-12-24T11:55:26.036Z,2.70
2022-12-24T11:58:28.659Z,2.50
2022-12-24T12:01:22.509Z,3.05
2022-12-24T12:04:16.643Z,2.40
2022-12-24T12:07:15.027Z,2.75
2022-12-24T12:10:09.027Z,3.35
2022-12-24T12:13:03.795Z,2.58
2022-12-24T12:16:03.482Z,2.60
2022-12-24T12:18:58.079Z,2.83
2022-12-24T12:21:48.813Z,2.70
2022-12-24T12:24:44.815Z,3.35
2022-12-24T12:27:36.833Z,3.10
2022-12-24T12:30:25.259Z,3.20
2022-12-24T12:33:26.554Z,3.53
2022-12-24T12:36:20.167Z,2.40
2022-12-24T12:39:07.275Z,2.67
2022-12-24T12:42:06.576Z,3.25
2022-12-24T12:45:36.499Z,3.15
2022-12-24T12:49:03.096Z,2.88
2022-12-24T12:52:02.185Z,3.40
2022-12-24T12:55:06.359Z,3.05
2022-12-24T12:58:00.998Z,2.85
2022-12-24T13:00:52.495Z,2.95
2022-12-24T13:04:17.233Z,3.28
2022-12-24T13:07:38.549Z,2.67
2022-12-24T13:11:15.312Z,3.13
2022-12-24T13:14:53.287Z,3.17
2022-12-24T13:18:07.721Z,2.80
2022-12-24T13:20:55.433Z,3.50
2022-12-24T13:23:42.150Z,3.03
2022-12-24T13:26:29.190Z,3.28
2022-12-24T13:29:42.003Z,2.85
2022-12-24T13:32:56.011Z,2.90
2022-12-24T13:36:01.102Z,3.17
2022-12-24T13:38:49.895Z,3.33
2022-12-24T13:41:58.965Z,3.10
2022-12-24T13:44:47.040Z,3.30
2022-12-24T13:47:33.578Z,2.90
2022-12-24T13:50:29.505Z,2.78
2022-12-24T13:53:29.439Z,3.45
2022-12-24T13:56:27.654Z,3.38
2022-12-24T13:59:36.147Z,3.25
2022-12-24T14:02:28.087Z,3.10
2022-12-24T14:05:26.001Z,3.08
2022-12-24T14:08:19.681Z,3.25
2022-12-24T14:11:12.625Z,3.50
2022-12-24T14:14:29.334Z,3.00
2022-12-24T14:17:26.648Z,2.80
2022-12-24T14:20:17.108Z,3.10
2022-12-24T14:23:06.389Z,2.42
2022-12-24T14:25:53.456Z,3.30
2022-12-24T14:28:45.960Z,3.10
2022-12-24T14:31:32.924Z,2.70
2022-12-24T14:34:21.796Z,3.30
2022-12-24T14:37:12.666Z,3.13
2022-12-24T14:40:00.435Z,3.40
2022-12-24T14:42:58.277Z,3.08
2022-12-24T14:45:52.793Z,3.45
2022-12-24T14:48:51.301Z,3.25
2022-12-24T14:51:48.635Z,2.72
2022-12-24T14:54:40.202Z,2.92
2022-12-24T14:57:28.542Z,3.33
2022-12-24T15:00:21.524Z,3.40
2022-12-24T15:03:15.742Z,2.80
2022-12-24T15:06:07.149Z,2.85
2022-12-24T15:08:55.888Z,3.22
2022-12-24T15:11:46.264Z,3.40
2022-12-24T15:14:45.380Z,3.10
2022-12-24T15:17:32.107Z,2.97
2022-12-24T15:20:25.943Z,2.97
2022-12-24T15:23:21.084Z,2.80
2022-12-24T15:26:24.275Z,3.42
2022-12-24T15:29:24.033Z,3.45
2022-12-24T15:32:15.220Z,3.08
2022-12-24T15:35:02.146Z,3.10
2022-12-24T15:37:49.163Z,3.03
2022-12-24T15:40:35.696Z,3.53
2022-12-24T15:43:24.405Z,2.95
2022-12-24T15:46:11.497Z,3.42
2022-12-24T15:49:02.783Z,3.58
2022-12-24T15:51:49.515Z,3.47
2022-12-24T15:54:36.811Z,4.30
2022-12-24T15:57:27.257Z,3.47
2022-12-24T16:00:24.842Z,3.75
2022-12-24T16:03:18.257Z,3.67
2022-12-24T16:06:07.787Z,3.65
2022-12-24T16:08:56.190Z,3.20
2022-12-24T16:11:42.784Z,4.18
2022-12-24T16:14:30.630Z,3.65
2022-12-24T16:17:22.969Z,3.47
2022-12-24T16:20:21.955Z,3.55
2022-12-24T16:23:19.941Z,3.75
2022-12-24T16:26:06.928Z,3.78
2022-12-24T16:28:53.654Z,3.03
2022-12-24T16:31:47.809Z,3.47
2022-12-24T16:34:35.852Z,3.90
2022-12-24T16:37:22.263Z,4.20
2022-12-24T16:40:19.250Z,4.15
2022-12-24T16:43:26.407Z,3.38
2022-12-24T16:46:14.773Z,3.13
2022-12-24T16:49:01.713Z,3.85
2022-12-24T16:51:49.566Z,3.40
2022-12-24T16:54:36.047Z,3.78
2022-12-24T16:57:24.458Z,3.70
2022-12-24T17:00:19.865Z,3.58
2022-12-24T17:03:06.896Z,3.40
2022-12-24T17:05:53.899Z,3.80
2022-12-24T17:08:41.953Z,3.65
2022-12-24T17:11:28.688Z,3.85
2022-12-24T17:14:20.323Z,4.05
2022-12-24T17:17:07.784Z,4.10
2022-12-24T17:19:55.011Z,4.30
2022-12-24T17:22:41.783Z,3.85
2022-12-24T17:25:29.712Z,4.18
2022-12-24T17:28:16.270Z,4.53
2022-12-24T17:31:09.147Z,4.65
2022-12-24T17:33:55.989Z,5.00
2022-12-24T17:36:42.615Z,4.70
2022-12-24T17:39:29.646Z,5.75
2022-12-24T17:42:17.830Z,5.22
2022-12-24T17:45:05.589Z,5.15
2022-12-24T17:47:52.283Z,6.03
2022-12-24T17:50:40.634Z,6.22
2022-12-24T17:53:27.176Z,5.82
2022-12-24T17:56:15.596Z,6.05
2022-12-24T17:59:03.985Z,6.60
2022-12-24T18:01:50.551Z,5.78
2022-12-24T18:04:37.389Z,6.78
2022-12-24T18:07:24.328Z,6.93
2022-12-24T18:10:12.137Z,6.07
2022-12-24T18:12:58.795Z,6.50
2022-12-24T18:15:46.905Z,6.07
2022-12-24T18:18:33.549Z,6.05
2022-12-24T18:21:23.888Z,6.63
2022-12-24T18:24:12.171Z,6.75
2022-12-24T18:26:59.114Z,7.88
2022-12-24T18:29:45.653Z,6.70
2022-12-24T18:32:33.668Z,7.20
2022-12-24T18:35:22.461Z,6.33
2022-12-24T18:38:09.471Z,6.43
2022-12-24T18:40:56.026Z,5.23
2022-12-24T18:43:42.566Z,5.43
2022-12-24T18:46:32.407Z,5.10
2022-12-24T18:49:20.265Z,5.43
2022-12-24T18:52:09.229Z,4.23
2022-12-24T18:54:56.154Z,5.47
2022-12-24T18:57:42.955Z,5.40
2022-12-24T19:00:30.335Z,5.57
2022-12-24T19:03:17.396Z,4.77
2022-12-24T19:06:06.038Z,4.97
2022-12-24T19:09:01.768Z,4.93
2022-12-24T19:11:48.560Z,4.53
2022-12-24T19:14:35.754Z,4.87
2022-12-24T19:17:22.680Z,4.97
2022-12-24T19:20:11.181Z,4.73
2022-12-24T19:22:59.648Z,5.20
2022-12-24T19:25:46.395Z,4.90
2022-12-24T19:28:34.357Z,5.97
2022-12-24T19:31:24.322Z,5.47
2022-12-24T19:34:11.215Z,5.10
2022-12-24T19:36:57.924Z,4.33
2022-12-24T19:39:45.933Z,4.43
2022-12-24T19:42:32.794Z,4.30
2022-12-24T19:45:19.868Z,5.03
2022-12-24T19:48:07.309Z,3.93
2022-12-24T19:51:01.164Z,4.33
2022-12-24T19:53:48.896Z,4.07
2022-12-24T19:56:36.701Z,4.23
2022-12-24T19:59:23.245Z,4.43
2022-12-24T20:02:12.033Z,4.23
2022-12-24T20:04:59.008Z,4.43
2022-12-24T20:07:45.696Z,4.40
2022-12-24T20:10:32.512Z,3.87
2022-12-24T20:13:20.720Z,4.03
2022-12-24T20:16:10.658Z,4.67
2022-12-24T20:18:59.666Z,4.30
2022-12-24T20:21:46.457Z,4.07
2022-12-24T20:24:33.531Z,3.67
2022-12-24T20:27:20.441Z,3.87
2022-12-24T20:30:11.008Z,3.90
2022-12-24T20:32:58.913Z,3.80
2022-12-24T20:35:45.839Z,3.93
2022-12-24T20:38:32.406Z,3.97
2022-12-24T20:41:22.463Z,4.43
2022-12-24T20:44:11.553Z,3.97
2022-12-24T20:46:59.868Z,3.97
2022-12-24T20:49:46.742Z,4.50
2022-12-24T20:52:33.329Z,3.33
2022-12-24T20:55:22.293Z,3.93
2022-12-24T20:58:10.610Z,3.87
2022-12-24T21:00:57.256Z,4.20
2022-12-24T21:03:45.989Z,4.47
2022-12-24T21:06:33.537Z,4.50
2022-12-24T21:09:23.360Z,3.83
2022-12-24T21:12:30.676Z,4.00
2022-12-24T21:15:19.090Z,3.97
2022-12-24T21:18:11.506Z,3.53
2022-12-24T21:20:59.773Z,4.50
2022-12-24T21:23:46.386Z,4.00
2022-12-24T21:26:33.223Z,4.40
2022-12-24T21:29:19.859Z,3.93
2022-12-24T21:32:06.462Z,5.00
2022-12-24T21:34:53.670Z,3.93
2022-12-24T21:37:41.779Z,4.27
2022-12-24T21:40:28.552Z,4.37
2022-12-24T21:43:15.293Z,4.10
2022-12-24T21:46:02.729Z,4.40
2022-12-24T21:49:08.505Z,4.23
2022-12-24T21:51:55.199Z,4.67
2022-12-24T21:54:43.386Z,3.60
2022-12-24T21:57:47.792Z,3.37
2022-12-24T22:00:35.761Z,3.90
2022-12-24T22:03:22.465Z,4.43
2022-12-24T22:06:30.749Z,3.10
2022-12-24T22:09:35.336Z,3.67
2022-12-24T22:12:23.820Z,3.97
2022-12-24T22:15:11.469Z,3.43
2022-12-24T22:17:58.189Z,3.70
2022-12-24T22:20:45.967Z,3.90
2022-12-24T22:23:37.116Z,3.90
2022-12-24T22:26:27.145Z,3.53
2022-12-24T22:29:15.031Z,3.60
2022-12-24T22:32:01.831Z,4.23
2022-12-24T22:34:49.387Z,3.80
2022-12-24T22:37:36.394Z,3.93
2022-12-24T22:40:23.009Z,3.50
2022-12-24T22:43:09.527Z,3.63
2022-12-24T22:45:57.804Z,3.90
2022-12-24T22:48:46.446Z,4.37
2022-12-24T22:51:33.134Z,4.10
2022-12-24T22:54:20.259Z,3.80
2022-12-24T22:57:06.970Z,3.80
2022-12-24T22:59:53.686Z,3.63
2022-12-24T23:02:41.733Z,4.00
2022-12-24T23:05:28.582Z,4.57
2022-12-24T23:08:15.318Z,3.23
2022-12-24T23:11:08.695Z,3.80
2022-12-24T23:14:13.397Z,4.33
2022-12-24T23:17:00.602Z,3.37
2022-12-24T23:19:49.075Z,4.10
2022-12-24T23:22:35.913Z,5.67
2022-12-24T23:25:23.105Z,3.97
2022-12-24T23:28:09.665Z,4.17
2022-12-24T23:30:59.138Z,3.73
2022-12-24T23:33:46.617Z,4.43
2022-12-24T23:36:35.142Z,4.00
2022-12-24T23:39:22.291Z,4.53
2022-12-24T23:42:09.076Z,4.10
2022-12-24T23:44:55.900Z,5.00
2022-12-24T23:47:43.058Z,4.63
2022-12-24T23:50:30.217Z,4.53
2022-12-24T23:53:19.850Z,5.00
2022-12-24T23:56:08.182Z,4.93
2022-12-24T23:58:55.304Z,4.67
